createdAt,value
2023-01-17T00:02:41.334Z,10.00
2023-01-17T00:08:06.370Z,9.60
2023-01-17T00:13:12.723Z,10.60
2023-01-17T00:18:18.679Z,11.30
2023-01-17T00:24:00.866Z,11.40
2023-01-17T00:29:07.060Z,11.70
2023-01-17T00:34:12.814Z,15.10
2023-01-17T00:39:18.596Z,15.40
2023-01-17T00:44:43.267Z,15.10
2023-01-17T00:50:07.972Z,14.10
2023-01-17T00:55:32.750Z,15.40
2023-01-17T01:00:57.256Z,17.10
2023-01-17T01:06:25.052Z,15.20
2023-01-17T01:11:49.545Z,15.10
2023-01-17T01:17:14.520Z,15.60
2023-01-17T01:22:39.600Z,18.50
2023-01-17T01:28:04.440Z,16.60
2023-01-17T01:33:21.291Z,14.90
2023-01-17T01:38:27.473Z,13.70
2023-01-17T01:43:46.332Z,14.00
2023-01-17T01:48:56.680Z,14.90
2023-01-17T01:54:09.999Z,12.90
2023-01-17T01:59:19.839Z,11.90
2023-01-17T02:04:28.435Z,14.70
2023-01-17T02:09:34.416Z,14.30
2023-01-17T02:14:40.389Z,13.70
2023-01-17T02:20:16.107Z,13.50
2023-01-17T02:25:56.259Z,14.40
2023-01-17T02:31:09.334Z,13.90
2023-01-17T02:36:24.069Z,13.80
2023-01-17T02:41:35.679Z,15.60
2023-01-17T02:46:48.144Z,14.40
2023-01-17T02:52:15.359Z,14.90
2023-01-17T02:57:36.672Z,13.90
2023-01-17T03:13:01.188Z,11.90
2023-01-17T03:18:11.139Z,14.10
2023-01-17T03:23:16.982Z,11.80
2023-01-17T03:28:22.668Z,12.00
2023-01-17T03:33:28.424Z,12.80
2023-01-17T03:38:34.147Z,13.40
2023-01-17T03:43:40.077Z,11.50
2023-01-17T03:48:45.639Z,11.70
2023-01-17T03:53:51.972Z,12.20
2023-01-17T03:58:58.663Z,11.30
2023-01-17T04:04:04.529Z,11.20
2023-01-17T04:09:10.603Z,12.60
2023-01-17T04:14:16.518Z,11.00
2023-01-17T04:19:22.385Z,10.70
2023-01-17T04:24:28.306Z,10.90
2023-01-17T04:29:34.157Z,11.20
2023-01-17T04:34:39.850Z,13.50
2023-01-17T04:39:45.764Z,12.90
2023-01-17T04:44:51.315Z,11.50
2023-01-17T04:49:57.092Z,9.80
2023-01-17T04:55:03.499Z,10.10
2023-01-17T05:00:11.779Z,11.60
2023-01-17T05:05:17.900Z,12.90
2023-01-17T05:10:24.043Z,10.30
2023-01-17T05:15:30.475Z,9.90
2023-01-17T05:20:37.366Z,10.90
2023-01-17T05:25:44.594Z,9.40
2023-01-17T05:30:50.450Z,11.10
2023-01-17T05:35:56.109Z,10.90
2023-01-17T05:41:05.021Z,9.30
2023-01-17T05:46:11.216Z,9.40
2023-01-17T05:51:17.133Z,10.50
2023-01-17T05:56:23.143Z,10.50
2023-01-17T06:01:29.148Z,10.00
2023-01-17T06:06:34.730Z,11.20
2023-01-17T06:11:40.652Z,10.60
2023-01-17T06:16:47.776Z,12.90
2023-01-17T06:21:53.703Z,12.90
2023-01-17T06:26:59.507Z,12.30
2023-01-17T06:32:05.890Z,11.00
2023-01-17T06:37:11.636Z,11.30
2023-01-17T06:42:17.650Z,10.50
2023-01-17T06:47:24.041Z,11.50
2023-01-17T06:52:29.854Z,11.30
2023-01-17T06:57:35.804Z,12.00
2023-01-17T07:02:41.595Z,12.20
2023-01-17T07:07:48.430Z,32.50
2023-01-17T07:13:02.110Z,21.00
2023-01-17T07:18:08.558Z,17.80
2023-01-17T07:23:14.270Z,12.30
2023-01-17T07:28:20.244Z,15.20
2023-01-17T07:33:26.039Z,12.40
2023-01-17T07:38:31.596Z,12.70
2023-01-17T07:43:37.678Z,12.90
2023-01-17T07:48:44.365Z,11.70
2023-01-17T07:53:50.177Z,11.00
2023-01-17T07:58:56.082Z,11.60
2023-01-17T08:04:01.885Z,10.90
2023-01-17T08:09:07.616Z,11.00
2023-01-17T08:14:13.287Z,12.20
2023-01-17T08:19:20.074Z,12.20
2023-01-17T08:24:25.838Z,10.40
2023-01-17T08:29:32.547Z,10.30
2023-01-17T08:34:38.739Z,12.30
2023-01-17T08:39:44.851Z,11.20
2023-01-17T08:44:50.612Z,9.60
2023-01-17T08:49:59.333Z,8.60
2023-01-17T08:55:06.372Z,9.30
2023-01-17T09:00:13.711Z,8.80
2023-01-17T09:05:19.943Z,14.20
2023-01-17T09:10:25.678Z,12.90
2023-01-17T09:15:31.245Z,11.20
2023-01-17T09:20:37.056Z,8.20
2023-01-17T09:25:44.748Z,11.80
2023-01-17T09:30:51.528Z,12.30
2023-01-17T09:36:03.710Z,10.80
2023-01-17T09:41:29.122Z,9.00
2023-01-17T09:46:40.174Z,12.00
2023-01-17T09:56:58.712Z,8.00
2023-01-17T10:02:23.808Z,8.90
2023-01-17T10:07:43.144Z,13.40
2023-01-17T10:12:58.369Z,10.30
2023-01-17T10:18:29.541Z,9.00
2023-01-17T10:23:55.210Z,8.60
2023-01-17T10:29:08.578Z,9.20
2023-01-17T10:34:19.605Z,13.10
2023-01-17T10:39:29.173Z,8.20
2023-01-17T10:44:40.054Z,8.40
2023-01-17T10:49:49.079Z,9.20
2023-01-17T10:55:20.717Z,13.30
2023-01-17T11:00:44.000Z,11.30
2023-01-17T11:06:17.149Z,9.70
2023-01-17T11:11:26.059Z,10.80
2023-01-17T11:16:32.910Z,13.30
2023-01-17T11:22:39.006Z,16.40
2023-01-17T11:28:01.103Z,11.40
2023-01-17T11:33:26.664Z,10.20
2023-01-17T11:38:32.556Z,11.20
2023-01-17T11:43:51.706Z,9.90
2023-01-17T11:49:01.310Z,10.20
2023-01-17T11:54:17.058Z,10.30
2023-01-17T11:59:29.955Z,10.80
2023-01-17T12:04:42.763Z,9.20
2023-01-17T12:10:00.402Z,11.20
2023-01-17T12:15:21.365Z,10.50
2023-01-17T12:20:34.077Z,10.90
2023-01-17T12:26:04.591Z,10.50
2023-01-17T12:31:23.000Z,11.40
2023-01-17T12:36:44.869Z,10.90
2023-01-17T12:42:03.509Z,11.40
2023-01-17T12:47:09.274Z,10.50
2023-01-17T12:52:25.079Z,10.80
2023-01-17T12:57:35.335Z,11.90
2023-01-17T13:02:47.570Z,11.20
2023-01-17T13:08:03.510Z,10.80
2023-01-17T13:13:20.241Z,10.80
2023-01-17T13:18:29.916Z,11.70
2023-01-17T13:23:50.279Z,12.50
2023-01-17T13:29:05.108Z,12.10
2023-01-17T13:34:27.262Z,11.20
2023-01-17T13:40:00.549Z,11.50
2023-01-17T13:45:18.001Z,11.20
2023-01-17T13:50:49.607Z,12.00
2023-01-17T13:56:02.887Z,11.70
2023-01-17T14:01:15.676Z,12.40
2023-01-17T14:06:37.910Z,12.20
2023-01-17T14:11:55.665Z,14.30
2023-01-17T14:17:47.229Z,14.00
2023-01-17T14:22:55.628Z,13.80
2023-01-17T14:28:06.723Z,12.70
2023-01-17T14:33:18.728Z,14.60
2023-01-17T14:38:26.642Z,15.10
2023-01-17T14:43:36.201Z,20.20
2023-01-17T14:48:42.745Z,25.30
2023-01-17T14:54:00.018Z,24.80
2023-01-17T14:59:16.903Z,29.10
2023-01-17T15:04:28.497Z,22.80
2023-01-17T15:09:37.877Z,26.00
2023-01-17T15:14:46.529Z,25.80
2023-01-17T15:19:57.270Z,21.50
2023-01-17T15:25:03.722Z,23.00
2023-01-17T15:30:15.202Z,23.00
2023-01-17T15:35:22.552Z,23.20
2023-01-17T15:40:31.248Z,26.80
2023-01-17T15:45:37.163Z,36.00
2023-01-17T15:50:43.482Z,38.10
2023-01-17T15:55:49.497Z,32.10
2023-01-17T16:00:56.102Z,34.70
2023-01-17T16:06:04.599Z,35.40
2023-01-17T16:11:15.675Z,34.10
2023-01-17T16:21:29.902Z,32.00
2023-01-17T16:26:35.838Z,26.90
2023-01-17T16:31:41.637Z,26.20
2023-01-17T16:36:52.838Z,28.40
2023-01-17T16:42:02.561Z,35.00
2023-01-17T16:47:08.505Z,31.00
2023-01-17T16:52:14.479Z,39.40
2023-01-17T16:57:20.613Z,28.50
2023-01-17T17:02:26.312Z,45.90
2023-01-17T17:07:32.338Z,37.70
2023-01-17T17:12:38.041Z,45.90
2023-01-17T17:17:44.479Z,44.40
2023-01-17T17:22:52.732Z,37.80
2023-01-17T17:27:58.399Z,30.50
2023-01-17T17:33:04.820Z,36.20
2023-01-17T17:38:10.942Z,38.60
2023-01-17T17:43:16.683Z,34.70
2023-01-17T17:48:22.514Z,31.00
2023-01-17T17:53:28.791Z,29.60
2023-01-17T17:58:36.310Z,41.60
2023-01-17T18:03:42.391Z,46.80
2023-01-17T18:08:49.020Z,39.70
2023-01-17T18:13:56.668Z,44.00
2023-01-17T18:19:03.931Z,48.50
2023-01-17T18:24:12.134Z,55.90
2023-01-17T18:29:19.537Z,58.90
2023-01-17T18:34:29.533Z,52.00
2023-01-17T18:39:35.548Z,43.30
2023-01-17T18:44:41.351Z,49.80
2023-01-17T18:49:47.175Z,47.90
2023-01-17T18:54:52.981Z,49.20
2023-01-17T18:59:58.752Z,55.20
2023-01-17T19:05:08.870Z,45.00
2023-01-17T19:10:14.846Z,51.00
2023-01-17T19:15:21.456Z,63.90
2023-01-17T19:20:27.503Z,61.20
2023-01-17T19:25:35.939Z,81.80
2023-01-17T19:30:41.899Z,69.30
2023-01-17T19:35:47.592Z,57.70
2023-01-17T19:40:53.417Z,66.10
2023-01-17T19:46:00.805Z,58.00
2023-01-17T19:51:08.601Z,55.40
2023-01-17T19:56:16.816Z,53.40
2023-01-17T20:01:28.895Z,49.30
2023-01-17T20:06:36.696Z,53.30
2023-01-17T20:11:42.907Z,51.00
2023-01-17T20:16:49.856Z,47.80
2023-01-17T20:21:55.629Z,44.60
2023-01-17T20:27:01.443Z,45.20
2023-01-17T20:32:07.935Z,47.20
2023-01-17T20:37:13.978Z,44.80
2023-01-17T20:42:19.758Z,44.20
2023-01-17T20:47:29.589Z,43.80
2023-01-17T20:52:35.553Z,48.20
2023-01-17T20:57:41.265Z,51.60
2023-01-17T21:02:47.088Z,44.30
2023-01-17T21:07:52.823Z,40.20
2023-01-17T21:12:59.844Z,48.80
2023-01-17T21:18:05.709Z,62.60
2023-01-17T21:23:17.989Z,60.60
2023-01-17T21:28:25.495Z,51.10
2023-01-17T21:33:31.257Z,52.10
2023-01-17T21:38:37.063Z,53.00
2023-01-17T21:43:42.760Z,55.90
2023-01-17T21:48:48.476Z,55.10
2023-01-17T21:53:54.217Z,53.30
2023-01-17T21:59:00.229Z,53.10
2023-01-17T22:04:06.367Z,72.90
2023-01-17T22:09:12.213Z,79.70
2023-01-17T22:14:19.899Z,67.00
2023-01-17T22:19:25.597Z,59.40
2023-01-17T22:24:31.304Z,55.10
2023-01-17T22:29:37.300Z,61.70
2023-01-17T22:34:43.257Z,57.90
2023-01-17T22:39:49.212Z,60.30
2023-01-17T22:44:55.166Z,57.50
2023-01-17T22:50:00.832Z,54.10
2023-01-17T22:55:07.827Z,51.80
2023-01-17T23:00:16.271Z,55.20
2023-01-17T23:05:22.980Z,52.80
2023-01-17T23:10:47.746Z,54.90
2023-01-17T23:16:28.810Z,51.60
2023-01-17T23:21:53.759Z,48.00
2023-01-17T23:27:18.143Z,48.90
2023-01-17T23:32:24.255Z,49.50
2023-01-17T23:37:50.429Z,52.30
2023-01-17T23:43:15.561Z,41.60
2023-01-17T23:48:23.631Z,44.30
2023-01-17T23:53:29.450Z,69.90
2023-01-17T23:58:35.668Z,159.20
